Time;durP1;ratioP1;P1;durP2;ratioP2;P2;SDS_P1;SDS_P2;PMS_P1;PMS_P2;Temp;Humidity;BMP_temperature;BMP_pressure;BME280_temperature;BME280_humidity;BME280_pressure;Samples;Min_cycle;Max_cycle;Signal;HPM_P1;HPM_P2
2023/12/16 00:01:32;;;;;;;10.15;7.10;;;;;;;-1.36;100.00;99581.41;1224475;75;2924080;-67
2023/12/16 00:04:05;;;;;;;10.15;7.15;;;;;;;-1.35;100.00;99588.34;1224863;75;2925151;-70
2023/12/16 00:06:38;;;;;;;8.70;6.10;;;;;;;-1.27;100.00;99589.28;1224234;75;2928290;-69
2023/12/16 00:09:13;;;;;;;8.70;5.75;;;;;;;-1.31;100.00;99588.44;1224762;75;2926701;-69
2023/12/16 00:11:47;;;;;;;9.95;7.30;;;;;;;-1.27;100.00;99586.63;1224649;75;2924423;-71
2023/12/16 00:14:19;;;;;;;8.05;5.65;;;;;;;-1.24;100.00;99593.97;1224495;75;2923964;-63
2023/12/16 00:16:52;;;;;;;7.90;5.65;;;;;;;-1.35;100.00;99599.09;1224735;75;2913270;-66
2023/12/16 00:19:25;;;;;;;7.50;5.05;;;;;;;-1.21;100.00;99612.06;1225040;75;2917050;-64
2023/12/16 00:21:58;;;;;;;6.85;4.90;;;;;;;-1.16;100.00;99617.19;1223817;75;2964571;-66
2023/12/16 00:24:33;;;;;;;5.80;4.05;;;;;;;-1.15;100.00;99621.44;1224530;75;2917606;-65
2023/12/16 00:27:07;;;;;;;5.35;4.10;;;;;;;-1.18;100.00;99627.53;1223362;75;2917369;-64
2023/12/16 00:29:40;;;;;;;6.60;4.90;;;;;;;-1.23;100.00;99637.72;1222595;75;2933540;-67
2023/12/16 00:32:12;;;;;;;6.10;4.75;;;;;;;-1.07;100.00;99630.44;1225003;75;2915376;-65
2023/12/16 00:34:45;;;;;;;9.75;6.90;;;;;;;-1.28;100.00;99628.03;1225288;75;2920343;-67
2023/12/16 00:37:18;;;;;;;8.60;6.45;;;;;;;-1.22;100.00;99615.13;1224033;75;2945848;-68
2023/12/16 00:39:54;;;;;;;8.25;5.70;;;;;;;-1.01;100.00;99622.88;1224207;75;2930688;-65
2023/12/16 00:42:27;;;;;;;7.15;4.90;;;;;;;-1.00;100.00;99616.41;1224468;75;2920781;-63
2023/12/16 00:45:00;;;;;;;6.05;4.60;;;;;;;-0.97;100.00;99616.47;1224332;75;2925632;-64
2023/12/16 00:47:33;;;;;;;5.70;4.20;;;;;;;-0.99;100.00;99631.38;1224545;75;2928077;-68
2023/12/16 00:50:08;;;;;;;5.75;3.90;;;;;;;-1.05;100.00;99635.47;1224630;75;2919603;-65
2023/12/16 00:52:41;;;;;;;7.70;5.55;;;;;;;-1.34;100.00;99632.88;1222458;75;2930404;-64
2023/12/16 00:55:16;;;;;;;8.35;6.25;;;;;;;-1.18;100.00;99635.59;1224305;75;2924052;-66
2023/12/16 00:57:49;;;;;;;6.85;5.30;;;;;;;-1.02;100.00;99635.56;1224564;75;2941370;-66
2023/12/16 01:00:22;;;;;;;5.60;4.30;;;;;;;-0.96;100.00;99625.28;1225927;75;2922675;-65
2023/12/16 01:02:55;;;;;;;6.00;4.60;;;;;;;-1.03;100.00;99614.38;1226110;75;2923104;-64
2023/12/16 01:05:28;;;;;;;4.90;3.55;;;;;;;-1.02;100.00;99618.66;1225460;75;2923666;-67
2023/12/16 01:08:01;;;;;;;5.90;4.10;;;;;;;-1.05;100.00;99625.50;1225930;75;2897970;-69
2023/12/16 01:10:37;;;;;;;4.75;3.70;;;;;;;-0.98;100.00;99614.16;1225878;75;2921263;-64
2023/12/16 01:13:09;;;;;;;3.45;3.00;;;;;;;-1.01;100.00;99618.31;1225021;75;2918553;-69
2023/12/16 01:15:42;;;;;;;4.30;3.25;;;;;;;-0.96;100.00;99626.09;1224053;75;2919424;-68
2023/12/16 01:18:15;;;;;;;4.65;3.50;;;;;;;-1.16;100.00;99627.16;1224920;75;2919825;-67
2023/12/16 01:20:48;;;;;;;7.95;6.05;;;;;;;-1.32;100.00;99641.38;1225451;75;2921433;-65
2023/12/16 01:23:21;;;;;;;9.75;6.70;;;;;;;-1.12;100.00;99641.47;1224997;75;2919249;-68
2023/12/16 01:25:57;;;;;;;8.70;5.90;;;;;;;-0.96;100.00;99644.13;1225803;75;2914631;-64
2023/12/16 01:28:29;;;;;;;6.25;4.65;;;;;;;-0.93;100.00;99640.75;1224361;67;2933584;-66
2023/12/16 01:31:02;;;;;;;6.00;4.45;;;;;;;-0.92;100.00;99639.59;1225462;75;2913629;-67
2023/12/16 01:33:35;;;;;;;5.45;4.15;;;;;;;-1.11;100.00;99640.31;1226083;75;2914534;-66
2023/12/16 01:36:09;;;;;;;5.65;4.30;;;;;;;-1.12;100.00;99657.59;1225150;75;2924037;-65
2023/12/16 01:38:42;;;;;;;9.15;6.35;;;;;;;-1.41;100.00;99667.63;1225553;75;2930635;-65
2023/12/16 01:41:17;;;;;;;9.80;7.10;;;;;;;-1.18;100.00;99656.28;1225219;75;2915884;-69
2023/12/16 01:43:51;;;;;;;6.95;5.35;;;;;;;-1.01;100.00;99652.44;1225601;75;2915809;-66
2023/12/16 01:46:25;;;;;;;5.45;4.40;;;;;;;-0.95;100.00;99651.06;1225199;75;2915298;-65
2023/12/16 01:48:58;;;;;;;7.00;4.60;;;;;;;-1.18;100.00;99665.13;1224050;75;2917093;-66
2023/12/16 01:51:32;;;;;;;9.35;6.05;;;;;;;-1.05;100.00;99662.34;1225270;75;2918062;-65
2023/12/16 01:54:05;;;;;;;6.75;5.45;;;;;;;-0.94;100.00;99664.19;1225218;75;2919353;-67
2023/12/16 01:56:41;;;;;;;6.90;5.00;;;;;;;-0.79;100.00;99657.22;1224609;75;2935056;-65
2023/12/16 01:59:14;;;;;;;6.10;4.25;;;;;;;-0.86;100.00;99662.44;1225162;75;2927108;-64
2023/12/16 02:01:47;;;;;;;6.20;4.90;;;;;;;-0.98;100.00;99655.25;1224594;75;2921759;-63
2023/12/16 02:04:21;;;;;;;6.70;4.90;;;;;;;-1.00;100.00;99652.13;1225529;75;2920918;-65
2023/12/16 02:06:54;;;;;;;5.55;4.35;;;;;;;-0.90;100.00;99665.00;1224158;75;2944134;-64
2023/12/16 02:09:27;;;;;;;4.90;3.90;;;;;;;-0.99;100.00;99674.38;1224003;75;2915234;-66
2023/12/16 02:12:03;;;;;;;7.95;6.15;;;;;;;-1.17;100.00;99666.69;1224517;67;2934003;-68
2023/12/16 02:14:33;;;;;;;8.10;5.85;;;;;;;-0.90;100.00;99665.00;1225740;75;2919764;-69
2023/12/16 02:17:06;;;;;;;7.70;4.95;;;;;;;-0.80;100.00;99658.31;1224906;75;2935429;-67
2023/12/16 02:19:40;;;;;;;5.60;4.60;;;;;;;-0.86;100.00;99671.25;1224065;75;2931466;-64
2023/12/16 02:22:13;;;;;;;5.55;4.45;;;;;;;-0.80;100.00;99658.31;1225407;75;2912188;-68
2023/12/16 02:24:49;;;;;;;4.30;3.50;;;;;;;-0.97;100.00;99651.41;1225191;75;2926051;-67
2023/12/16 02:27:22;;;;;;;6.70;4.95;;;;;;;-1.08;100.00;99647.72;1225353;75;2921851;-63
2023/12/16 02:29:55;;;;;;;5.60;4.65;;;;;;;-1.11;100.00;99656.44;1224572;75;2917944;-65
2023/12/16 02:32:28;;;;;;;5.05;4.05;;;;;;;-0.99;100.00;99664.41;1225160;75;2920379;-68
2023/12/16 02:35:01;;;;;;;4.65;3.30;;;;;;;-1.10;100.00;99658.78;1224922;75;2921355;-68
2023/12/16 02:37:34;;;;;;;4.95;4.20;;;;;;;-1.29;100.00;99658.72;1225257;75;2912877;-68
2023/12/16 02:40:12;;;;;;;5.05;4.35;;;;;;;-1.31;100.00;99666.34;1224741;75;2922284;-66
2023/12/16 02:42:45;;;;;;;7.10;5.40;;;;;;;-1.36;100.00;99661.22;1225324;75;2919840;-67
2023/12/16 02:45:18;;;;;;;5.65;4.60;;;;;;;-1.39;100.00;99661.94;1223378;75;2923680;-69
2023/12/16 02:47:51;;;;;;;6.15;5.15;;;;;;;-1.62;100.00;99664.41;1224637;75;2923137;-67
2023/12/16 02:50:24;;;;;;;7.85;6.40;;;;;;;-1.70;100.00;99668.81;1224594;75;2928887;-67
2023/12/16 02:52:56;;;;;;;7.20;5.90;;;;;;;-1.56;100.00;99679.16;1224702;75;2918043;-63
2023/12/16 02:55:32;;;;;;;6.35;4.80;;;;;;;-1.39;100.00;99664.63;1224715;75;2917301;-64
2023/12/16 02:58:05;;;;;;;6.75;5.05;;;;;;;-1.36;100.00;99680.03;1224996;75;2915772;-64
2023/12/16 03:00:37;;;;;;;5.70;4.55;;;;;;;-1.39;100.00;99676.13;1224062;75;2922906;-68
2023/12/16 03:03:10;;;;;;;6.00;4.75;;;;;;;-1.71;100.00;99664.53;1224749;75;2918373;-64
2023/12/16 03:05:43;;;;;;;7.10;5.40;;;;;;;-1.63;100.00;99662.84;1225222;75;2912704;-65
2023/12/16 03:08:16;;;;;;;7.10;5.30;;;;;;;-1.57;100.00;99667.59;1224583;75;2927341;-66
2023/12/16 03:10:53;;;;;;;7.95;5.85;;;;;;;-1.74;100.00;99684.81;1224369;75;2921921;-65
2023/12/16 03:13:26;;;;;;;7.45;5.65;;;;;;;-1.65;100.00;99673.94;1225189;75;2921625;-66
2023/12/16 03:15:59;;;;;;;5.90;4.65;;;;;;;-1.43;100.00;99683.31;1224811;75;2916501;-63
2023/12/16 03:18:32;;;;;;;7.00;5.10;;;;;;;-1.84;100.00;99696.03;1225917;75;2919801;-65
2023/12/16 03:21:07;;;;;;;7.90;5.55;;;;;;;-1.63;100.00;99697.75;1225307;75;2924719;-66
2023/12/16 03:23:39;;;;;;;7.35;5.40;;;;;;;-1.76;100.00;99705.84;1225096;75;2927308;-66
2023/12/16 03:26:15;;;;;;;7.35;5.75;;;;;;;-1.75;100.00;99706.66;1225705;75;2899180;-66
2023/12/16 03:28:48;;;;;;;6.20;5.10;;;;;;;-1.51;100.00;99711.13;1224358;75;2925754;-64
2023/12/16 03:31:21;;;;;;;7.45;5.30;;;;;;;-1.82;100.00;99704.53;1224357;75;2926830;-65
2023/12/16 03:33:53;;;;;;;9.90;5.50;;;;;;;-1.59;100.00;99707.47;1225355;75;2916455;-64
2023/12/16 03:36:27;;;;;;;7.80;5.90;;;;;;;-1.77;100.00;99722.31;1224594;75;2918299;-66
2023/12/16 03:39:00;;;;;;;7.30;5.65;;;;;;;-1.54;100.00;99719.84;1222102;75;2924680;-64
2023/12/16 03:41:36;;;;;;;6.45;4.85;;;;;;;-1.50;100.00;99723.41;1220775;75;3166580;-63
2023/12/16 03:44:09;;;;;;;7.60;5.20;;;;;;;-1.63;100.00;99733.44;1224533;75;2926666;-66
2023/12/16 03:46:42;;;;;;;5.95;4.50;;;;;;;-1.58;100.00;99719.78;1225577;75;2922713;-67
2023/12/16 03:49:14;;;;;;;7.90;5.60;;;;;;;-1.51;100.00;99719.19;1222066;75;3005211;-63
2023/12/16 03:51:47;;;;;;;5.75;4.40;;;;;;;-1.39;100.00;99732.56;1222824;75;2982508;-68
2023/12/16 03:54:20;;;;;;;4.60;3.85;;;;;;;-1.34;100.00;99728.84;1223910;75;2931030;-65
2023/12/16 03:56:55;;;;;;;5.35;4.20;;;;;;;-1.34;100.00;99723.47;1225195;75;2912567;-66
2023/12/16 03:59:28;;;;;;;5.60;4.00;;;;;;;-1.30;100.00;99735.06;1224260;75;2913683;-64
2023/12/16 04:02:01;;;;;;;3.80;3.40;;;;;;;-1.25;100.00;99744.78;1224837;75;2921467;-67
2023/12/16 04:04:35;;;;;;;5.35;3.70;;;;;;;-1.42;100.00;99741.31;1224483;75;2929404;-62
2023/12/16 04:07:09;;;;;;;6.50;3.15;;;;;;;-1.23;100.00;99742.53;1224645;83;2924247;-67
2023/12/16 04:09:44;;;;;;;4.25;3.05;;;;;;;-1.32;100.00;99759.59;1224954;75;2930200;-67
2023/12/16 04:12:19;;;;;;;3.80;3.20;;;;;;;-1.27;100.00;99750.50;1225423;75;2919939;-64
2023/12/16 04:14:52;;;;;;;5.85;4.60;;;;;;;-1.34;100.00;99745.72;1224314;75;2918622;-66
2023/12/16 04:17:25;;;;;;;5.15;4.20;;;;;;;-1.14;100.00;99743.94;1211624;75;3844646;-66
2023/12/16 04:19:58;;;;;;;4.80;3.75;;;;;;;-1.12;100.00;99752.44;1224718;75;2922327;-66
2023/12/16 04:22:31;;;;;;;4.60;3.65;;;;;;;-0.99;100.00;99750.44;1224566;75;2931113;-67
2023/12/16 04:25:10;;;;;;;3.60;2.90;;;;;;;-0.96;100.00;99752.44;1225062;75;2918098;-66
2023/12/16 04:27:45;;;;;;;3.70;3.00;;;;;;;-0.99;100.00;99760.41;1225211;75;2918142;-66
2023/12/16 04:30:19;;;;;;;4.45;3.90;;;;;;;-1.14;100.00;99765.44;1224631;75;2917187;-66
2023/12/16 04:32:51;;;;;;;4.45;3.70;;;;;;;-0.99;100.00;99758.50;1224841;75;2913527;-64
2023/12/16 04:35:24;;;;;;;4.65;3.70;;;;;;;-0.94;100.00;99758.25;1225538;75;2918609;-63
2023/12/16 04:37:57;;;;;;;4.55;3.65;;;;;;;-0.87;100.00;99753.06;1223548;75;2947746;-62
2023/12/16 04:40:30;;;;;;;6.45;4.75;;;;;;;-1.16;100.00;99758.84;1223905;75;2917741;-66
2023/12/16 04:43:05;;;;;;;6.10;5.10;;;;;;;-0.95;100.00;99755.91;1224424;75;2921508;-65
2023/12/16 04:45:38;;;;;;;6.40;5.00;;;;;;;-0.87;100.00;99749.56;1224905;75;2921972;-64
2023/12/16 04:48:11;;;;;;;4.30;3.90;;;;;;;-0.80;100.00;99762.41;1223800;75;2922477;-67
2023/12/16 04:50:44;;;;;;;4.45;3.60;;;;;;;-0.86;100.00;99749.25;1225479;75;2924839;-64
2023/12/16 04:53:17;;;;;;;5.05;4.10;;;;;;;-0.94;100.00;99752.09;1224383;75;2916693;-64
2023/12/16 04:55:49;;;;;;;4.95;3.85;;;;;;;-0.84;100.00;99754.28;1224073;75;2926450;-65
2023/12/16 04:58:25;;;;;;;5.90;4.80;;;;;;;-1.09;100.00;99761.72;1225035;75;2919148;-64
2023/12/16 05:00:58;;;;;;;6.90;5.50;;;;;;;-1.05;100.00;99761.81;1224409;75;2916372;-65
2023/12/16 05:03:31;;;;;;;6.20;4.75;;;;;;;-0.96;100.00;99773.97;1224581;75;2922479;-65
2023/12/16 05:06:04;;;;;;;5.65;4.85;;;;;;;-1.24;100.00;99757.88;1224824;75;2918872;-65
2023/12/16 05:08:36;;;;;;;6.00;5.40;;;;;;;-0.98;100.00;99765.47;1224150;75;2936654;-64
2023/12/16 05:11:09;;;;;;;7.85;6.20;;;;;;;-1.38;100.00;99768.25;1224062;75;2935542;-63
2023/12/16 05:13:46;;;;;;;7.80;6.70;;;;;;;-1.30;100.00;99761.94;1224378;75;2947940;-67
2023/12/16 05:16:22;;;;;;;7.55;5.80;;;;;;;-1.08;100.00;99764.06;1224612;75;2929273;-66
2023/12/16 05:18:55;;;;;;;12.40;7.95;;;;;;;-1.30;100.00;99780.72;1223849;75;2918292;-67
2023/12/16 05:21:28;;;;;;;7.75;6.20;;;;;;;-1.21;100.00;99769.84;1224235;75;2927266;-66
2023/12/16 05:24:01;;;;;;;7.05;5.65;;;;;;;-1.10;100.00;99779.75;1224288;75;2926402;-66
2023/12/16 05:26:33;;;;;;;9.15;6.80;;;;;;;-1.10;100.00;99776.28;1223771;75;2921989;-65
2023/12/16 05:29:09;;;;;;;7.40;5.85;;;;;;;-0.90;100.00;99787.91;1224024;75;2917412;-65
2023/12/16 05:31:42;;;;;;;5.90;4.85;;;;;;;-0.95;100.00;99780.09;1225036;75;2926807;-65
2023/12/16 05:34:15;;;;;;;6.90;4.95;;;;;;;-0.83;100.00;99782.72;1225229;75;2934089;-64
2023/12/16 05:36:50;;;;;;;7.60;6.10;;;;;;;-1.09;100.00;99791.28;1224837;75;2925126;-64
2023/12/16 05:39:23;;;;;;;7.75;5.90;;;;;;;-0.91;100.00;99776.38;1224608;67;2931913;-66
2023/12/16 05:41:55;;;;;;;6.95;5.30;;;;;;;-0.92;100.00;99799.00;1224736;75;2916209;-64
2023/12/16 05:44:31;;;;;;;8.40;6.25;;;;;;;-1.02;100.00;99802.22;1224931;75;2937117;-64
2023/12/16 05:47:04;;;;;;;7.60;5.50;;;;;;;-0.78;100.00;99798.59;1225060;75;2921885;-64
2023/12/16 05:49:36;;;;;;;5.75;4.70;;;;;;;-0.66;100.00;99789.66;1223710;75;2922666;-65
2023/12/16 05:52:10;;;;;;;5.40;4.30;;;;;;;-0.72;100.00;99799.91;1225205;75;2923654;-65
2023/12/16 05:54:43;;;;;;;5.70;4.40;;;;;;;-0.62;100.00;99808.59;1225397;75;2920176;-67
2023/12/16 05:57:15;;;;;;;7.50;5.65;;;;;;;-0.66;100.00;99811.19;1225079;75;2919011;-65
2023/12/16 05:59:51;;;;;;;5.80;4.85;;;;;;;-0.57;100.00;99816.41;1224552;75;2927752;-63
2023/12/16 06:02:24;;;;;;;6.00;4.70;;;;;;;-0.59;100.00;99821.34;1226086;75;2908398;-65
2023/12/16 06:04:58;;;;;;;4.70;3.90;;;;;;;-0.48;100.00;99820.47;1223858;75;2924809;-66
2023/12/16 06:07:30;;;;;;;8.65;6.85;;;;;;;-1.06;100.00;99833.59;1224057;75;2936287;-66
2023/12/16 06:10:04;;;;;;;19.55;13.95;;;;;;;-0.80;100.00;99824.25;1225555;75;2923529;-64
2023/12/16 06:12:37;;;;;;;14.20;11.55;;;;;;;-0.57;100.00;99824.47;1224785;75;2930104;-65
2023/12/16 06:15:13;;;;;;;10.45;8.45;;;;;;;-0.49;100.00;99829.66;1224579;75;2923764;-67
2023/12/16 06:17:46;;;;;;;10.05;7.70;;;;;;;-0.60;100.00;99823.25;1223473;75;2932342;-67
2023/12/16 06:20:19;;;;;;;8.65;6.60;;;;;;;-0.58;100.00;99829.03;1224100;75;2922750;-65
2023/12/16 06:22:52;;;;;;;11.40;7.90;;;;;;;-1.02;100.00;99852.50;1209280;75;4080114;-66
2023/12/16 06:25:25;;;;;;;11.75;8.90;;;;;;;-0.83;100.00;99847.25;1225060;75;2932856;-64
2023/12/16 06:27:58;;;;;;;11.15;8.60;;;;;;;-0.50;100.00;99838.88;1223800;75;2946777;-66
2023/12/16 06:30:34;;;;;;;9.35;7.10;;;;;;;-0.57;100.00;99849.44;1224596;75;2921729;-66
2023/12/16 06:33:07;;;;;;;10.85;8.05;;;;;;;-0.47;100.00;99840.84;1225336;75;2919892;-65
2023/12/16 06:35:40;;;;;;;10.55;7.15;;;;;;;-0.41;100.00;99843.28;1224727;75;2918929;-66
2023/12/16 06:38:13;;;;;;;9.60;7.60;;;;;;;-0.61;100.00;99858.56;1224458;75;2926061;-66
2023/12/16 06:40:46;;;;;;;12.70;10.00;;;;;;;-0.83;100.00;99866.06;1224224;75;2959298;-66
2023/12/16 06:43:19;;;;;;;16.85;12.60;;;;;;;-0.50;100.00;99859.63;1224900;75;2921866;-66
2023/12/16 06:45:54;;;;;;;11.90;9.90;;;;;;;-0.35;100.00;99866.13;1224611;75;2919863;-63
2023/12/16 06:48:27;;;;;;;12.10;9.60;;;;;;;-0.51;100.00;99871.47;1223370;75;2921992;-63
2023/12/16 06:51:00;;;;;;;10.05;7.30;;;;;;;-0.27;100.00;99886.69;1223311;75;2916246;-67
2023/12/16 06:53:35;;;;;;;10.05;8.25;;;;;;;-0.54;100.00;99888.31;1222417;75;2934013;-64
2023/12/16 06:56:10;;;;;;;10.40;7.45;;;;;;;-0.16;100.00;99881.56;1224932;75;2855671;-66
2023/12/16 06:58:43;;;;;;;10.75;8.80;;;;;;;-0.52;100.00;99884.16;1223904;75;2923214;-64
2023/12/16 07:01:19;;;;;;;12.55;9.50;;;;;;;-0.38;100.00;99891.03;1222160;75;2995001;-65
2023/12/16 07:03:52;;;;;;;10.60;8.10;;;;;;;-0.04;100.00;99884.94;1223475;75;2929237;-67
2023/12/16 07:06:25;;;;;;;8.60;7.00;;;;;;;-0.05;100.00;99899.53;1224353;75;2925571;-64
2023/12/16 07:08:57;;;;;;;9.70;8.25;;;;;;;-0.23;100.00;99904.47;1223514;75;2919929;-67
2023/12/16 07:11:30;;;;;;;11.25;8.40;;;;;;;-0.19;100.00;99901.09;1224061;75;2940810;-68
2023/12/16 07:14:05;;;;;;;13.25;8.25;;;;;;;-0.15;100.00;99900.03;1223701;75;2920177;-65
2023/12/16 07:16:41;;;;;;;9.95;7.45;;;;;;;-0.07;100.00;99907.19;1222860;75;2922573;-68
2023/12/16 07:19:14;;;;;;;11.90;9.35;;;;;;;-0.07;100.00;99909.88;1223677;75;2937994;-66
2023/12/16 07:21:46;;;;;;;14.60;10.65;;;;;;;-0.04;100.00;99914.56;1223713;75;2918028;-66
2023/12/16 07:24:19;;;;;;;16.90;12.30;;;;;;;-0.10;100.00;99910.53;1222699;75;2930513;-65
2023/12/16 07:26:52;;;;;;;13.00;8.90;;;;;;;0.13;100.00;99916.09;1224267;75;2942368;-65
2023/12/16 07:29:25;;;;;;;9.45;7.25;;;;;;;0.11;100.00;99918.34;1224767;75;2922103;-64
2023/12/16 07:32:01;;;;;;;7.90;6.45;;;;;;;0.24;100.00;99915.56;1224090;75;2923696;-66
2023/12/16 07:34:33;;;;;;;6.40;5.40;;;;;;;0.11;100.00;99918.34;1224071;75;2913871;-63
2023/12/16 07:37:07;;;;;;;9.80;7.10;;;;;;;0.13;100.00;99909.94;1223224;75;2918886;-65
2023/12/16 07:39:39;;;;;;;9.65;7.75;;;;;;;0.02;100.00;99919.66;1223184;75;2925235;-69
2023/12/16 07:42:13;;;;;;;8.40;6.45;;;;;;;0.17;100.00;99914.28;1225825;75;2848212;-66
2023/12/16 07:44:46;;;;;;;10.25;6.70;;;;;;;0.25;100.00;99915.22;1225614;75;2914281;-65
2023/12/16 07:47:21;;;;;;;9.70;6.50;;;;;;;0.16;100.00;99912.69;1222922;75;2924843;-66
2023/12/16 07:49:54;;;;;;;9.10;7.00;;;;;;;0.35;100.00;99928.13;1224543;75;2922840;-66
2023/12/16 07:52:27;;;;;;;9.50;6.75;;;;;;;0.39;100.00;99926.31;1223925;75;2929618;-64
2023/12/16 07:55:00;;;;;;;7.55;5.85;;;;;;;0.48;100.00;99933.41;1224620;68;2926784;-67
2023/12/16 07:57:33;;;;;;;6.25;5.45;;;;;;;0.55;100.00;99928.94;1224634;75;2924195;-66
2023/12/16 08:00:08;;;;;;;8.55;6.65;;;;;;;0.33;100.00;99932.31;1223541;75;2927336;-66
2023/12/16 08:02:44;;;;;;;6.25;5.35;;;;;;;0.65;100.00;99927.66;1209252;75;4067159;-66
2023/12/16 08:05:18;;;;;;;8.25;6.25;;;;;;;0.42;100.00;99931.00;1223415;75;2918596;-65
2023/12/16 08:07:51;;;;;;;10.55;8.40;;;;;;;0.64;100.00;99924.16;1223921;75;2921645;-65
2023/12/16 08:10:23;;;;;;;9.70;8.35;;;;;;;0.44;100.00;99936.03;1224066;75;2921898;-65
2023/12/16 08:12:56;;;;;;;14.10;12.55;;;;;;;0.68;100.00;99935.03;1222728;75;2924473;-66
2023/12/16 08:15:29;;;;;;;14.30;12.25;;;;;;;0.66;100.00;99933.81;1224405;75;2922982;-62
2023/12/16 08:18:07;;;;;;;11.35;9.85;;;;;;;1.02;100.00;99938.03;1224307;75;2919045;-67
2023/12/16 08:20:40;;;;;;;8.00;7.20;;;;;;;1.14;100.00;99945.19;1224174;75;2946406;-66
2023/12/16 08:23:13;;;;;;;7.65;6.15;;;;;;;0.94;100.00;99941.69;1224564;75;2912030;-66
2023/12/16 08:25:46;;;;;;;9.65;8.50;;;;;;;0.81;100.00;99946.44;1224099;75;2927267;-65
2023/12/16 08:28:19;;;;;;;16.85;13.05;;;;;;;0.53;100.00;99946.59;1222957;75;2923016;-66
2023/12/16 08:30:54;;;;;;;15.35;11.60;;;;;;;0.34;100.00;99936.59;1224233;75;2919757;-68
2023/12/16 08:33:29;;;;;;;19.15;15.55;;;;;;;0.44;100.00;99937.97;1223720;75;2927926;-68
2023/12/16 08:36:02;;;;;;;22.70;17.15;;;;;;;0.51;100.00;99943.50;1224492;75;2917305;-65
2023/12/16 08:38:38;;;;;;;25.90;19.40;;;;;;;0.66;100.00;99953.47;1224178;75;2924938;-66
2023/12/16 08:41:12;;;;;;;24.10;17.50;;;;;;;1.15;100.00;99939.44;1224361;75;2930042;-66
2023/12/16 08:43:45;;;;;;;19.15;14.35;;;;;;;1.71;100.00;99938.16;1224367;75;2917458;-67
2023/12/16 08:46:22;;;;;;;14.90;11.60;;;;;;;1.99;100.00;99943.22;1223506;75;2930404;-72
2023/12/16 08:48:58;;;;;;;12.95;10.70;;;;;;;1.73;100.00;99938.56;1223702;75;2922426;-65
2023/12/16 08:51:31;;;;;;;13.95;10.45;;;;;;;1.96;100.00;99946.66;1223796;75;2922409;-66
2023/12/16 08:54:04;;;;;;;54.25;34.25;;;;;;;1.80;100.00;99948.69;1219541;75;3092125;-66
2023/12/16 08:56:37;;;;;;;34.15;23.95;;;;;;;1.46;100.00;99959.28;1223972;75;2942800;-63
2023/12/16 08:59:10;;;;;;;22.90;16.95;;;;;;;2.25;100.00;99966.03;1223248;75;2933091;-65
2023/12/16 09:01:43;;;;;;;15.95;12.45;;;;;;;2.52;100.00;99964.88;1224599;75;2922360;-63
2023/12/16 09:04:18;;;;;;;14.30;10.80;;;;;;;2.82;100.00;99966.09;1224294;75;2915545;-66
2023/12/16 09:06:51;;;;;;;14.15;11.35;;;;;;;2.93;100.00;99962.34;1222691;75;2916544;-65
2023/12/16 09:09:24;;;;;;;14.65;11.05;;;;;;;3.66;100.00;99958.56;1223779;75;2923994;-63
2023/12/16 09:11:57;;;;;;;15.15;10.95;;;;;;;4.20;100.00;99967.91;1225393;75;2888569;-66
2023/12/16 09:14:30;;;;;;;12.20;9.70;;;;;;;5.08;95.91;99964.19;1224687;75;2921771;-65
2023/12/16 09:17:03;;;;;;;11.95;9.05;;;;;;;5.60;86.81;99968.59;1224829;75;2919550;-65
2023/12/16 09:19:38;;;;;;;9.85;7.55;;;;;;;5.95;85.60;99962.47;1225154;75;2921767;-64
2023/12/16 09:22:11;;;;;;;9.45;7.15;;;;;;;7.06;80.09;99962.31;1224705;75;2923179;-65
2023/12/16 09:24:44;;;;;;;12.70;9.15;;;;;;;6.50;79.35;99961.31;1224263;75;2923027;-67
2023/12/16 09:27:17;;;;;;;15.40;10.25;;;;;;;5.94;80.51;99952.75;1225008;75;2919638;-67
2023/12/16 09:29:50;;;;;;;13.60;10.05;;;;;;;6.07;78.77;99961.31;1225431;75;2925302;-67
2023/12/16 09:32:23;;;;;;;19.55;10.80;;;;;;;6.44;79.97;99957.41;1225777;75;2914016;-66
2023/12/16 09:34:59;;;;;;;15.60;10.35;;;;;;;7.63;74.83;99950.34;1224020;75;2927616;-69
2023/12/16 09:37:31;;;;;;;14.65;9.35;;;;;;;7.67;71.99;99959.25;1224660;75;2919479;-68
2023/12/16 09:40:04;;;;;;;11.65;8.60;;;;;;;7.98;71.86;99952.03;1224995;75;2930161;-69
2023/12/16 09:42:39;;;;;;;10.35;7.65;;;;;;;8.86;67.00;99954.38;1224810;67;2923771;-69
2023/12/16 09:45:14;;;;;;;10.20;8.05;;;;;;;8.86;67.80;99957.09;1225311;75;2916113;-66
2023/12/16 09:47:48;;;;;;;13.90;8.35;;;;;;;7.80;69.94;99965.03;1223074;75;2929701;-64
2023/12/16 09:50:24;;;;;;;13.10;8.35;;;;;;;7.25;72.30;99956.38;1223003;75;2923538;-68
2023/12/16 09:52:57;;;;;;;11.20;8.20;;;;;;;7.97;71.11;99949.72;1220402;75;2971123;-66
2023/12/16 09:55:30;;;;;;;10.80;7.65;;;;;;;10.53;62.96;99946.09;1223836;75;2929299;-64
2023/12/16 09:58:03;;;;;;;11.25;8.55;;;;;;;10.36;62.71;99948.75;1224662;75;2925046;-67
2023/12/16 10:00:38;;;;;;;10.80;7.75;;;;;;;12.38;58.83;99951.50;1222912;75;2934534;-65
2023/12/16 10:03:11;;;;;;;14.35;9.50;;;;;;;11.33;56.93;99935.13;1224231;75;2919888;-66
2023/12/16 10:05:48;;;;;;;9.60;6.70;;;;;;;13.47;54.88;99939.09;1225207;75;2927198;-63
2023/12/16 10:08:21;;;;;;;9.70;6.50;;;;;;;12.64;55.23;99941.41;1223648;75;2922474;-65
2023/12/16 10:11:02;;;;;;;8.70;6.15;;;;;;;11.59;55.68;99938.88;1224484;75;2940516;-65
2023/12/16 10:13:36;;;;;;;6.65;4.60;;;;;;;15.66;48.84;99930.31;1225302;75;2917259;-65
2023/12/16 10:16:21;;;;;;;7.30;5.15;;;;;;;16.51;45.93;99927.28;1225058;75;2916073;-65
2023/12/16 10:18:57;;;;;;;6.90;4.80;;;;;;;18.24;42.87;99938.28;1224551;75;2923442;-71
2023/12/16 10:21:35;;;;;;;7.20;5.15;;;;;;;18.46;41.17;99932.41;1224534;75;2923572;-66
2023/12/16 10:24:08;;;;;;;9.10;6.80;;;;;;;15.78;45.04;99928.72;1224388;75;2920477;-70
2023/12/16 10:26:47;;;;;;;8.60;5.90;;;;;;;15.59;46.07;99925.09;1225045;75;2915357;-67
2023/12/16 10:29:23;;;;;;;7.25;5.75;;;;;;;17.33;43.92;99926.38;1224083;75;2928873;-68
2023/12/16 10:31:56;;;;;;;9.20;6.80;;;;;;;14.82;46.46;99914.56;1224175;75;2920468;-67
2023/12/16 10:34:32;;;;;;;9.00;6.20;;;;;;;14.73;47.87;99902.72;1224494;75;2928551;-66
2023/12/16 10:37:12;;;;;;;7.30;5.50;;;;;;;16.48;45.15;99903.31;1225630;75;2914051;-67
2023/12/16 10:39:45;;;;;;;9.15;6.15;;;;;;;15.07;47.44;99904.59;1223891;75;2934268;-67
2023/12/16 10:42:18;;;;;;;8.00;6.05;;;;;;;16.46;46.30;99897.47;1225221;75;2927923;-66
2023/12/16 10:44:51;;;;;;;9.05;6.15;;;;;;;16.91;44.89;99890.38;1224781;75;2926557;-68
2023/12/16 10:47:30;;;;;;;9.05;6.05;;;;;;;16.99;43.75;99886.06;1225174;75;2925117;-67
2023/12/16 10:50:03;;;;;;;9.05;5.75;;;;;;;17.55;43.05;99881.84;1226196;75;2912227;-67
2023/12/16 10:52:42;;;;;;;5.90;4.40;;;;;;;20.49;39.29;99877.13;1225228;75;2911966;-66
2023/12/16 10:55:21;;;;;;;7.95;5.10;;;;;;;18.43;40.47;99882.69;1225451;75;2919061;-67
2023/12/16 10:58:01;;;;;;;7.50;5.00;;;;;;;17.90;41.65;99872.31;1224221;75;2923786;-66
2023/12/16 11:00:40;;;;;;;5.05;3.65;;;;;;;21.90;35.91;99867.84;1224444;75;2919651;-66
2023/12/16 11:03:24;;;;;;;7.10;5.00;;;;;;;21.90;34.77;99862.28;1224999;75;2911677;-66
2023/12/16 11:06:06;;;;;;;11.05;7.90;;;;;;;21.85;35.39;99868.59;1224550;75;2922902;-67
2023/12/16 11:08:42;;;;;;;6.90;5.10;;;;;;;18.50;38.83;99860.88;1224306;75;2916858;-67
2023/12/16 11:11:15;;;;;;;7.65;6.05;;;;;;;17.18;42.86;99870.16;1224061;75;2934033;-71
2023/12/16 11:13:50;;;;;;;7.85;6.00;;;;;;;17.52;42.53;99866.16;1224816;75;2919520;-67
2023/12/16 11:16:36;;;;;;;7.85;5.95;;;;;;;17.73;41.78;99856.06;1224276;75;2938808;-67
2023/12/16 11:19:14;;;;;;;8.90;5.90;;;;;;;18.69;40.03;99853.16;1223103;67;2922999;-66
2023/12/16 11:21:49;;;;;;;7.70;5.00;;;;;;;20.15;38.43;99848.19;1223031;75;2944379;-65
2023/12/16 11:24:24;;;;;;;5.85;4.95;;;;;;;18.65;38.63;99849.78;1225064;75;2913102;-65
2023/12/16 11:26:58;;;;;;;5.70;4.30;;;;;;;20.14;39.02;99846.69;1224812;75;2920775;-68
2023/12/16 11:29:34;;;;;;;7.10;4.40;;;;;;;20.00;38.67;99839.94;1221433;75;2928038;-67
2023/12/16 11:32:07;;;;;;;5.90;4.10;;;;;;;22.09;36.03;99834.72;1223008;75;2946416;-73
2023/12/16 11:34:49;;;;;;;7.60;3.85;;;;;;;21.49;35.93;99825.59;1222122;75;2927512;-70
2023/12/16 11:37:54;;;;;;;5.25;4.15;;;;;;;19.60;37.80;99821.97;1223225;75;2917148;-68
2023/12/16 11:40:54;;;;;;;4.80;3.70;;;;;;;20.08;37.36;99818.03;1224001;75;2932995;-64